site sitenws-alerts: Checking more than four warning/county codes can delay the loading of your pages. You should use a cron job to get the data.

Nearby METAR Weather Reports

 

KETB - West Bend Municipal Airport, West Bend, WI
Updated: 09/16/2019 8:15pm
Clear
Clear
 Wind from calm
Wind: Calm
Temperature: 63°F , 17°C
Dew Point: 61°F , 16°C
Humidity: 94%
Barometer: 30.14 inHg , 1020.7 hPa
Clouds: Clear
Visibility: 10 miles , 16 km
2019/09/17 01:15 KETB 170115Z AUTO 00000KT 10SM CLR 17/16 A3014 RMK AO2
KOSH - Wittman Regional Airport, Oshkosh, WI
Updated: 09/16/2019 7:53pm
Clear
Clear
 Wind from SE
Wind: SE 7 mph , 11 km/h
Temperature: 70°F , 21°C
Dew Point: 64°F , 18°C
Humidity: 83%
Barometer: 30.11 inHg , 1019.6 hPa
Clouds: Clear
Visibility: 10 miles , 16 km
2019/09/17 00:53 KOSH 170053Z 14006KT 10SM CLR 21/18 A3011 RMK AO2 SLP189 T02060183
 
KSBM - Sheboygan County Memorial, Sheboygan, WI
Updated: 09/16/2019 7:53pm
Fog, Overcast
Fog, Overcast
 Wind from calm
Wind: Calm
Temperature: 59°F , 15°C
Dew Point: 57°F , 14°C
Humidity: 94%
Barometer: 30.14 inHg , 1020.7 hPa
Summary: Fog
Clouds: Overcast
Visibility: 1/4 mile , 0.4 km
Cloud details: Overcast 100 ft
2019/09/17 00:53 KSBM 170053Z AUTO 00000KT 1/4SM FG VV001 15/14 A3014 RMK AO2 SLP205 T01500144 $
KFLD - FDL County Airport, Fond du Lac, WI
Updated: 09/16/2019 7:53pm
Clear
Clear
 Wind from SE
Wind: SE 7 mph , 11 km/h
Temperature: 70°F , 21°C
Dew Point: 64°F , 18°C
Humidity: 83%
Barometer: 30.13 inHg , 1020.3 hPa
Clouds: Clear
Visibility: 10 miles , 16 km
2019/09/17 00:53 KFLD 170053Z AUTO 14006KT 10SM CLR 21/18 A3013 RMK AO2 SLP199 T02110178 $
 
KMKE - General Mitchell Field, Milwaukee, WI
Updated: 09/16/2019 7:52pm
Fog, Overcast
Fog, Overcast
 Wind from calm
Wind: Calm
Temperature: 61°F , 16°C
Dew Point: 59°F , 15°C
Humidity: 94%
Barometer: 30.13 inHg , 1020.3 hPa
Summary: Fog
Clouds: Overcast
Visibility: 1/2 mile , 0.8 km
Cloud details: Overcast 200 ft
2019/09/17 00:52 KMKE 170052Z 00000KT 1/2SM R01L/2800V5000FT FG VV002 16/15 A3013 RMK AO2 SLP204 T01610150 $
KMSN - Truax Field, Madison, WI
Updated: 09/16/2019 7:53pm
Partly cloudy
Partly cloudy
 Wind from calm
Wind: Calm
Temperature: 70°F , 21°C
Dew Point: 63°F , 17°C
Humidity: 78%
Barometer: 30.10 inHg , 1019.3 hPa
Clouds: Partly cloudy
Visibility: 10 miles , 16 km
Cloud details: Partly cloudy 25000 ft
2019/09/17 00:53 KMSN 170053Z 00000KT 10SM SCT250 21/17 A3010 RMK AO2 SLP191 T02060172 $
 
KGRB - Austin Strable Field, Green Bay, WI
Updated: 09/16/2019 7:53pm
Clear
Clear
 Wind from ESE
Wind: ESE 5 mph , 7 km/h
Temperature: 70°F , 21°C
Dew Point: 64°F , 18°C
Humidity: 83%
Barometer: 30.12 inHg , 1020 hPa
Clouds: Clear
Visibility: 10 miles , 16 km
2019/09/17 00:53 KGRB 170053Z 12004KT 10SM CLR 21/18 A3012 RMK AO2 SLP200 T02060183
KSUW - Bong Airport, Superior, WI
Updated: 09/16/2019 8:35pm
Mist, Overcast
Mist, Overcast
 Wind from calm
Wind: Calm
Temperature: 52°F , 11°C
Dew Point: 52°F , 11°C
Humidity: 100%
Barometer: 30.01 inHg , 1016.3 hPa
Summary: Mist
Clouds: Overcast
Visibility: 3/4 mile , 1.2 km
Cloud details: Overcast 300 ft
2019/09/17 01:35 KSUW 170135Z AUTO 00000KT 3/4SM BR OVC003 11/11 A3001 RMK AO2 T01070107
 
KLSE - La Crosse Municipal Airport, La Crosse, WI
Updated: 09/16/2019 7:53pm
Clear
Clear
 Wind from SSE
Wind: SSE 7 mph , 11 km/h
Temperature: 75°F , 24°C
Dew Point: 64°F , 18°C
Humidity: 69%
Barometer: 30.04 inHg , 1017.3 hPa
Clouds: Clear
Visibility: 10 miles , 16 km
2019/09/17 00:53 KLSE 170053Z 15006KT 10SM CLR 24/18 A3004 RMK AO2 SLP166 T02390183
KIMT - Ford Field, Iron Mountain, MI
Updated: 09/16/2019 7:54pm
Clear
Clear
 Wind from SE
Wind: SE 8 mph , 13 km/h
Temperature: 68°F , 20°C
Dew Point: 64°F , 18°C
Humidity: 88%
Barometer: 30.12 inHg , 1020 hPa
Clouds: Clear
Visibility: 10 miles , 16 km
2019/09/17 00:54 KIMT 170054Z AUTO 14007KT 10SM CLR 20/18 A3012 RMK AO2 SLP198 T02000178
 
KSAW - K.I. Sawyer Field, Marquette, MI
Updated: 09/16/2019 8:15pm
Mist, Mostly cloudy
Mist, Mostly cloudy
 Wind from S
Wind: S 10 mph , 17 km/h
Temperature: 61°F , 16°C
Dew Point: 59°F , 15°C
Humidity: 94%
Barometer: 30.14 inHg , 1020.7 hPa
Summary: Mist
Clouds: Mostly cloudy
Visibility: 5 miles , 8 km
Cloud details: Mostly cloudy 400 ft
2019/09/17 01:15 KSAW 170115Z 18009KT 5SM BR BKN004 16/15 A3014
KIWD - Iron County Airport, Ironwood, MI
Updated: 09/16/2019 7:56pm
Clear
Clear
 Wind from E
Wind: E 6 mph , 9 km/h
Temperature: 72°F , 22°C
Dew Point: 63°F , 17°C
Humidity: 73%
Barometer: 30.04 inHg , 1017.3 hPa
Clouds: Clear
Visibility: 10 miles , 16 km
2019/09/17 00:56 KIWD 170056Z AUTO 09005KT 10SM CLR 22/17 A3004 RMK AO2 SLP171 T02220172